Time;durP1;ratioP1;P1;durP2;ratioP2;P2;SDS_P1;SDS_P2;PMS_P1;PMS_P2;Temp;Humidity;BMP_temperature;BMP_pressure;BME280_temperature;BME280_humidity;BME280_pressure;Samples;Min_cycle;Max_cycle;Signal;HPM_P1;HPM_P2
2021/09/28 00:01:32;;;;;;;17.87;11.97;;;18.50;99.90;;;;;;5020395;28;20181;-82
2021/09/28 00:03:58;;;;;;;14.87;9.87;;;18.50;99.90;;;;;;5018718;28;20268;-81
2021/09/28 00:06:23;;;;;;;17.70;12.10;;;18.50;99.90;;;;;;5017034;28;20476;-80
2021/09/28 00:08:49;;;;;;;16.67;11.23;;;18.50;99.90;;;;;;5000920;28;20207;-81
2021/09/28 00:11:14;;;;;;;16.67;11.33;;;18.50;99.90;;;;;;5018393;28;20174;-80
2021/09/28 00:13:40;;;;;;;15.87;10.90;;;18.50;99.90;;;;;;5016015;28;20268;-80
2021/09/28 00:16:06;;;;;;;18.60;11.93;;;18.50;99.90;;;;;;5015903;28;20296;-80
2021/09/28 00:18:32;;;;;;;18.50;11.03;;;18.50;99.90;;;;;;5017867;28;20580;-81
2021/09/28 00:20:58;;;;;;;22.50;12.37;;;18.40;99.90;;;;;;5018303;28;20545;-81
2021/09/28 00:23:23;;;;;;;14.30;10.07;;;18.40;99.90;;;;;;5017996;28;20537;-81
2021/09/28 00:25:49;;;;;;;18.07;11.40;;;18.40;99.90;;;;;;5017414;28;20441;-81
2021/09/28 00:28:16;;;;;;;16.70;10.50;;;18.50;99.90;;;;;;5021372;28;20201;-81
2021/09/28 00:30:47;;;;;;;18.80;10.90;;;18.40;99.90;;;;;;5019150;28;20421;-81
2021/09/28 00:33:16;;;;;;;16.07;10.20;;;18.40;99.90;;;;;;5021437;28;20425;-81
2021/09/28 00:35:42;;;;;;;18.30;10.80;;;18.40;99.90;;;;;;5023913;28;20441;-81
2021/09/28 00:38:07;;;;;;;17.33;11.10;;;18.40;99.90;;;;;;5005872;28;20956;-81
2021/09/28 00:40:33;;;;;;;15.27;10.63;;;18.30;99.90;;;;;;5000454;28;20237;-81
2021/09/28 00:42:58;;;;;;;17.10;10.70;;;18.30;99.90;;;;;;5015591;28;20174;-81
2021/09/28 00:45:24;;;;;;;19.20;13.30;;;18.30;99.90;;;;;;5015897;28;20216;-81
2021/09/28 00:47:50;;;;;;;14.80;9.93;;;18.30;99.90;;;;;;5014630;28;20276;-81
2021/09/28 00:50:16;;;;;;;17.53;10.40;;;18.30;99.90;;;;;;5014185;28;20550;-81
2021/09/28 00:52:42;;;;;;;18.73;10.93;;;18.30;99.90;;;;;;4997100;28;20477;-81
2021/09/28 00:55:08;;;;;;;15.47;10.77;;;18.20;99.90;;;;;;5012759;28;20465;-81
2021/09/28 00:57:35;;;;;;;13.93;10.37;;;18.20;99.90;;;;;;5027581;28;20270;-81
2021/09/28 01:00:02;;;;;;;16.50;10.90;;;18.20;99.90;;;;;;5024563;28;20452;-81
2021/09/28 01:02:28;;;;;;;16.40;11.17;;;18.20;99.90;;;;;;5021989;28;21022;-81
2021/09/28 01:04:55;;;;;;;16.47;11.57;;;18.30;99.90;;;;;;5024016;28;20486;-81
2021/09/28 01:07:20;;;;;;;17.80;10.77;;;18.30;99.90;;;;;;5020363;28;20198;-81
2021/09/28 01:09:48;;;;;;;17.07;11.13;;;18.30;99.90;;;;;;5024894;28;20483;-81
2021/09/28 01:12:14;;;;;;;16.93;10.77;;;18.40;99.90;;;;;;5023487;28;20180;-81
2021/09/28 01:14:42;;;;;;;19.50;11.30;;;18.40;99.90;;;;;;5022419;28;20511;-80
2021/09/28 01:17:16;;;;;;;19.80;12.50;;;18.40;99.90;;;;;;5021112;28;20189;-80
2021/09/28 01:19:42;;;;;;;22.50;11.53;;;18.40;99.90;;;;;;5003404;28;20456;-80
2021/09/28 01:22:10;;;;;;;17.83;11.70;;;18.40;99.90;;;;;;5019803;28;20413;-81
2021/09/28 01:24:36;;;;;;;20.13;12.43;;;18.40;99.90;;;;;;4986341;28;20524;-80
2021/09/28 01:27:03;;;;;;;16.20;11.80;;;18.40;99.90;;;;;;5020387;28;20515;-81
2021/09/28 01:29:29;;;;;;;19.57;11.53;;;18.40;99.90;;;;;;5018109;28;20838;-81
2021/09/28 01:31:54;;;;;;;13.67;9.47;;;18.40;99.90;;;;;;5020700;28;20409;-81
2021/09/28 01:34:21;;;;;;;15.43;11.20;;;18.40;99.90;;;;;;5021458;28;20574;-81
2021/09/28 01:36:49;;;;;;;20.87;12.70;;;18.40;99.90;;;;;;5019394;28;20268;-81
2021/09/28 01:39:16;;;;;;;16.83;11.83;;;18.40;99.90;;;;;;5019225;28;20555;-81
2021/09/28 01:41:43;;;;;;;23.63;11.80;;;18.40;99.90;;;;;;5019797;28;20405;-81
2021/09/28 01:44:13;;;;;;;17.47;10.80;;;18.40;99.90;;;;;;5018781;28;20448;-81
2021/09/28 01:46:41;;;;;;;15.93;10.40;;;18.40;99.90;;;;;;5019336;28;20496;-81
2021/09/28 01:49:08;;;;;;;15.27;10.13;;;18.40;99.90;;;;;;5019730;28;20413;-81
2021/09/28 01:51:34;;;;;;;18.33;10.17;;;18.40;99.90;;;;;;5020629;28;20512;-81
2021/09/28 01:54:03;;;;;;;21.27;10.20;;;18.40;99.90;;;;;;5019540;28;20409;-81
2021/09/28 01:56:29;;;;;;;18.07;10.27;;;18.40;99.90;;;;;;5019467;28;20428;-81
2021/09/28 01:58:58;;;;;;;19.73;11.20;;;18.40;99.90;;;;;;5017912;28;20775;-81
2021/09/28 02:01:25;;;;;;;13.87;10.33;;;18.40;99.90;;;;;;5019515;28;20199;-81
2021/09/28 02:03:50;;;;;;;17.13;10.97;;;18.40;99.90;;;;;;5018517;28;20843;-81
2021/09/28 02:06:21;;;;;;;13.70;9.47;;;18.50;99.90;;;;;;5018596;28;20429;-81
2021/09/28 02:08:48;;;;;;;14.47;8.93;;;18.40;99.90;;;;;;5017941;28;20190;-81
2021/09/28 02:11:13;;;;;;;14.50;9.80;;;18.40;99.90;;;;;;5015870;28;20444;-80
2021/09/28 02:13:39;;;;;;;12.80;8.50;;;18.40;99.90;;;;;;5017350;28;20420;-81
2021/09/28 02:16:05;;;;;;;14.70;8.80;;;18.40;99.90;;;;;;5017470;28;20190;-81
2021/09/28 02:18:31;;;;;;;12.03;8.77;;;18.30;99.90;;;;;;5018966;28;20409;-80
2021/09/28 02:20:57;;;;;;;12.00;8.53;;;18.30;99.90;;;;;;5018452;28;20202;-81
2021/09/28 02:23:22;;;;;;;14.50;8.33;;;18.30;99.90;;;;;;5018151;28;20266;-82
2021/09/28 02:25:48;;;;;;;12.47;8.20;;;18.30;99.90;;;;;;5020311;28;20201;-82
2021/09/28 02:28:14;;;;;;;14.90;8.50;;;18.30;99.90;;;;;;5002912;28;20669;-80
2021/09/28 02:30:40;;;;;;;12.70;8.40;;;18.30;99.90;;;;;;5019340;28;20185;-81
2021/09/28 02:33:05;;;;;;;12.40;7.80;;;18.40;99.90;;;;;;5017399;28;20888;-81
2021/09/28 02:35:34;;;;;;;11.53;7.80;;;18.30;99.90;;;;;;5016509;28;20251;-81
2021/09/28 02:38:00;;;;;;;13.47;8.13;;;18.30;99.90;;;;;;5020176;28;20198;-81
2021/09/28 02:40:27;;;;;;;11.80;7.37;;;18.40;99.90;;;;;;5018396;28;20819;-81
2021/09/28 02:42:53;;;;;;;11.23;7.57;;;18.40;99.90;;;;;;5017757;28;20205;-81
2021/09/28 02:45:19;;;;;;;12.23;8.43;;;18.40;99.90;;;;;;5019476;28;20420;-81
2021/09/28 02:47:45;;;;;;;10.93;7.43;;;18.40;99.90;;;;;;5022099;28;20406;-81
2021/09/28 02:50:11;;;;;;;11.63;7.83;;;18.40;99.90;;;;;;5021503;28;20431;-81
2021/09/28 02:52:37;;;;;;;9.43;7.40;;;18.40;99.90;;;;;;5022817;28;20205;-81
2021/09/28 02:55:05;;;;;;;11.33;7.47;;;18.40;99.90;;;;;;5021282;28;20424;-80
2021/09/28 02:57:30;;;;;;;10.30;6.87;;;18.40;99.90;;;;;;5021342;28;20193;-81
2021/09/28 02:59:56;;;;;;;12.00;7.37;;;18.40;99.90;;;;;;5020312;28;20468;-81
2021/09/28 03:02:21;;;;;;;11.77;8.10;;;18.40;99.90;;;;;;5022475;28;20548;-81
2021/09/28 03:04:47;;;;;;;12.10;7.23;;;18.40;99.90;;;;;;5020881;28;20178;-82
2021/09/28 03:07:12;;;;;;;10.40;6.63;;;18.40;99.90;;;;;;5021308;28;20715;-81
2021/09/28 03:09:38;;;;;;;11.10;7.17;;;18.50;99.90;;;;;;5019646;28;20179;-82
2021/09/28 03:12:04;;;;;;;10.10;8.13;;;18.60;99.90;;;;;;5018797;28;20182;-81
2021/09/28 03:14:30;;;;;;;11.03;6.97;;;18.50;99.90;;;;;;5017933;28;20186;-81
2021/09/28 03:16:55;;;;;;;10.73;7.47;;;18.50;99.90;;;;;;5017311;28;20495;-81
2021/09/28 03:19:24;;;;;;;12.77;7.17;;;18.40;99.90;;;;;;5018133;28;20464;-80
2021/09/28 03:21:50;;;;;;;12.73;6.00;;;18.40;99.90;;;;;;5033655;28;20650;-80
2021/09/28 03:24:16;;;;;;;9.73;6.20;;;18.40;99.90;;;;;;5015990;28;20444;-80
2021/09/28 03:26:42;;;;;;;12.90;8.00;;;18.30;99.90;;;;;;5017740;28;20487;-80
2021/09/28 03:29:08;;;;;;;9.87;6.90;;;18.30;99.90;;;;;;5020972;28;20482;-80
2021/09/28 03:31:34;;;;;;;11.90;7.57;;;18.30;99.90;;;;;;5018731;28;20648;-80
2021/09/28 03:33:59;;;;;;;9.73;7.43;;;18.20;99.90;;;;;;5017902;28;20176;-80
2021/09/28 03:36:25;;;;;;;12.20;7.87;;;18.30;99.90;;;;;;5017513;28;20433;-80
2021/09/28 03:38:51;;;;;;;10.60;6.63;;;18.30;99.90;;;;;;5017723;28;20229;-81
2021/09/28 03:41:19;;;;;;;10.40;6.77;;;18.20;99.90;;;;;;5016782;28;20287;-80
2021/09/28 03:43:45;;;;;;;10.07;6.70;;;18.30;99.90;;;;;;5001870;28;20189;-80
2021/09/28 03:46:10;;;;;;;9.17;6.17;;;18.30;99.90;;;;;;5001077;28;20471;-80
2021/09/28 03:48:36;;;;;;;8.03;5.77;;;18.30;99.90;;;;;;5019152;28;20170;-80
2021/09/28 03:51:02;;;;;;;11.90;8.13;;;18.30;99.90;;;;;;5019249;28;20185;-81
2021/09/28 03:53:27;;;;;;;9.77;6.53;;;18.40;99.90;;;;;;5019534;28;20228;-80
2021/09/28 03:55:53;;;;;;;6.93;5.63;;;18.40;99.90;;;;;;5002224;28;20292;-80
2021/09/28 03:58:21;;;;;;;6.87;5.50;;;18.40;99.90;;;;;;5001955;28;20189;-81
2021/09/28 04:00:47;;;;;;;8.40;6.20;;;18.40;99.90;;;;;;5017059;28;20202;-80
2021/09/28 04:03:12;;;;;;;10.90;6.40;;;18.40;99.90;;;;;;5001176;28;20420;-79
2021/09/28 04:05:38;;;;;;;7.67;5.80;;;18.40;99.90;;;;;;5017016;28;20247;-81
2021/09/28 04:08:05;;;;;;;7.77;6.10;;;18.30;99.90;;;;;;5017896;28;20189;-81
2021/09/28 04:10:34;;;;;;;9.17;6.43;;;18.30;99.90;;;;;;5019583;28;20412;-82
2021/09/28 04:13:00;;;;;;;9.83;6.67;;;18.30;99.90;;;;;;5019193;28;20417;-83
2021/09/28 04:15:26;;;;;;;9.10;5.87;;;18.30;99.90;;;;;;5019736;28;20982;-82
2021/09/28 04:17:52;;;;;;;6.17;5.07;;;18.30;99.90;;;;;;5021396;28;20182;-82
2021/09/28 04:20:19;;;;;;;6.60;5.67;;;18.30;99.90;;;;;;5025956;28;20297;-82
2021/09/28 04:22:44;;;;;;;6.53;5.23;;;18.30;99.90;;;;;;5025669;28;20502;-81
2021/09/28 04:25:10;;;;;;;7.07;5.20;;;18.30;99.90;;;;;;5022805;28;20460;-82
2021/09/28 04:27:36;;;;;;;8.60;5.87;;;18.30;99.90;;;;;;5004720;28;20186;-82
2021/09/28 04:30:03;;;;;;;8.00;5.00;;;18.30;99.90;;;;;;5033763;28;20172;-82
2021/09/28 04:32:29;;;;;;;7.80;4.70;;;18.20;99.90;;;;;;5020878;28;20457;-81
2021/09/28 04:34:54;;;;;;;9.43;5.73;;;18.20;99.90;;;;;;5002771;28;20417;-82
2021/09/28 04:37:20;;;;;;;7.80;5.07;;;18.20;99.90;;;;;;5021327;28;20178;-80
2021/09/28 04:39:45;;;;;;;6.27;4.83;;;18.20;99.90;;;;;;5020759;28;20292;-80
2021/09/28 04:42:11;;;;;;;10.20;5.30;;;18.20;99.90;;;;;;5020927;28;20237;-81
2021/09/28 04:44:36;;;;;;;5.80;4.17;;;18.20;99.90;;;;;;5022794;28;20259;-80
2021/09/28 04:47:02;;;;;;;6.03;4.00;;;18.00;99.90;;;;;;5019572;28;20691;-81
2021/09/28 04:49:28;;;;;;;6.97;3.73;;;18.00;99.90;;;;;;5020908;28;20203;-80
2021/09/28 04:51:53;;;;;;;6.07;3.43;;;18.10;99.90;;;;;;5021221;28;20243;-80
2021/09/28 04:54:19;;;;;;;3.90;3.50;;;18.00;99.90;;;;;;5002865;28;20597;-81
2021/09/28 04:56:45;;;;;;;10.70;4.30;;;18.10;99.90;;;;;;5019056;28;20696;-81
2021/09/28 04:59:12;;;;;;;8.90;4.40;;;18.00;99.90;;;;;;5021655;28;20316;-81
2021/09/28 05:01:41;;;;;;;4.07;2.83;;;17.80;99.90;;;;;;5023301;28;20177;-81
2021/09/28 05:04:07;;;;;;;5.43;3.80;;;17.80;99.90;;;;;;5020116;28;20789;-81
2021/09/28 05:06:33;;;;;;;4.97;3.10;;;17.70;99.90;;;;;;5020451;28;20454;-81
2021/09/28 05:08:58;;;;;;;4.70;3.30;;;17.80;99.90;;;;;;5020626;28;20183;-80
2021/09/28 05:11:24;;;;;;;3.70;2.90;;;17.80;99.90;;;;;;5020627;28;20442;-81
2021/09/28 05:13:50;;;;;;;3.63;2.57;;;17.90;99.90;;;;;;5020249;28;20196;-81
2021/09/28 05:16:17;;;;;;;4.30;3.10;;;18.00;99.90;;;;;;5003092;28;20202;-81
2021/09/28 05:18:43;;;;;;;3.27;2.90;;;18.00;99.90;;;;;;5019257;28;20421;-81
2021/09/28 05:21:10;;;;;;;2.87;2.33;;;17.90;99.90;;;;;;5003319;28;21076;-82
2021/09/28 05:23:38;;;;;;;2.80;2.13;;;17.90;99.90;;;;;;5022398;28;20416;-83
2021/09/28 05:26:04;;;;;;;4.63;2.53;;;17.90;99.90;;;;;;5002066;28;20534;-81
2021/09/28 05:28:29;;;;;;;3.50;2.53;;;17.90;99.90;;;;;;5018129;28;20462;-81
2021/09/28 05:30:55;;;;;;;2.60;2.00;;;17.80;99.90;;;;;;5022552;28;20200;-81
2021/09/28 05:33:22;;;;;;;4.40;2.20;;;17.70;99.90;;;;;;5035031;28;20184;-82
2021/09/28 05:35:47;;;;;;;4.00;1.97;;;17.60;99.90;;;;;;5003516;28;20992;-81
2021/09/28 05:38:13;;;;;;;5.00;2.53;;;17.60;99.90;;;;;;5042179;28;20449;-81
2021/09/28 05:40:39;;;;;;;3.23;2.07;;;17.70;99.90;;;;;;5041425;28;20274;-81
2021/09/28 05:43:05;;;;;;;4.70;2.00;;;17.70;99.90;;;;;;5034602;28;20419;-81
2021/09/28 05:45:30;;;;;;;1.80;1.50;;;17.80;99.90;;;;;;5020629;28;20200;-81
2021/09/28 05:47:56;;;;;;;3.03;2.00;;;17.80;99.90;;;;;;5038537;28;20266;-81
2021/09/28 05:50:22;;;;;;;4.03;1.70;;;17.60;99.90;;;;;;5038038;28;20191;-82
2021/09/28 05:52:47;;;;;;;5.57;1.77;;;17.50;99.90;;;;;;5039299;28;20396;-82
2021/09/28 05:55:14;;;;;;;2.33;1.90;;;17.40;99.90;;;;;;5039844;28;20233;-81
2021/09/28 05:57:41;;;;;;;3.60;1.67;;;17.50;99.90;;;;;;5038160;28;20426;-80
2021/09/28 06:00:10;;;;;;;2.00;1.80;;;17.50;99.90;;;;;;5038771;28;20467;-82
2021/09/28 06:02:36;;;;;;;3.63;2.17;;;17.50;99.90;;;;;;5027780;28;20454;-81
2021/09/28 06:05:02;;;;;;;2.37;1.80;;;17.50;99.90;;;;;;5020026;28;20509;-80
2021/09/28 06:07:28;;;;;;;2.43;1.80;;;17.60;99.90;;;;;;5038120;28;20191;-80
2021/09/28 06:09:54;;;;;;;2.93;1.40;;;17.30;99.90;;;;;;5027826;28;20719;-80
2021/09/28 06:12:20;;;;;;;2.77;1.50;;;17.40;99.90;;;;;;5023982;28;20514;-80
2021/09/28 06:14:46;;;;;;;1.80;1.40;;;17.30;99.90;;;;;;5027362;28;20281;-79
2021/09/28 06:17:12;;;;;;;2.23;1.43;;;17.50;99.90;;;;;;5023200;28;20869;-80
2021/09/28 06:19:41;;;;;;;2.73;1.57;;;17.50;99.90;;;;;;5032203;28;20475;-80
2021/09/28 06:22:06;;;;;;;4.63;2.00;;;17.50;99.90;;;;;;5041268;28;20189;-80
2021/09/28 06:24:33;;;;;;;3.43;1.37;;;17.60;99.90;;;;;;5036535;28;20431;-80
2021/09/28 06:27:00;;;;;;;2.50;1.20;;;17.50;99.90;;;;;;5016482;28;20195;-78
2021/09/28 06:29:27;;;;;;;4.10;1.60;;;17.50;99.90;;;;;;4984638;28;20430;-81
2021/09/28 06:31:52;;;;;;;2.40;1.20;;;17.50;99.90;;;;;;5022941;28;20552;-79
2021/09/28 06:34:18;;;;;;;3.67;1.57;;;17.20;99.90;;;;;;5035579;28;20452;-79
2021/09/28 06:36:43;;;;;;;1.87;1.30;;;17.30;99.90;;;;;;5036150;28;20213;-79
2021/09/28 06:39:09;;;;;;;1.67;1.17;;;17.30;99.90;;;;;;5035530;28;20190;-80
2021/09/28 06:41:35;;;;;;;3.03;1.70;;;17.30;99.90;;;;;;5037961;28;20179;-79
2021/09/28 06:44:01;;;;;;;1.40;1.30;;;17.30;99.90;;;;;;5036598;28;20174;-79
2021/09/28 06:46:27;;;;;;;1.50;1.20;;;17.40;99.90;;;;;;5035817;28;20201;-79
2021/09/28 06:48:52;;;;;;;1.53;1.43;;;17.40;99.90;;;;;;5038169;28;20824;-81
2021/09/28 06:51:18;;;;;;;2.50;1.57;;;17.40;99.90;;;;;;5036976;28;20460;-78
2021/09/28 06:53:45;;;;;;;2.43;1.87;;;17.30;99.90;;;;;;5038801;28;20171;-78
2021/09/28 06:56:14;;;;;;;2.00;1.70;;;17.20;99.90;;;;;;5020937;28;20572;-80
2021/09/28 06:58:39;;;;;;;2.40;1.67;;;17.40;99.90;;;;;;5042332;28;20514;-79
2021/09/28 07:01:05;;;;;;;1.77;1.57;;;17.30;99.90;;;;;;5040972;28;20495;-79
2021/09/28 07:03:33;;;;;;;2.10;1.73;;;17.50;99.90;;;;;;5037994;28;20202;-80
2021/09/28 07:05:59;;;;;;;3.30;2.03;;;17.60;99.90;;;;;;5025507;28;20287;-79
2021/09/28 07:08:24;;;;;;;10.37;2.13;;;17.50;99.90;;;;;;5040852;28;20914;-80
2021/09/28 07:10:50;;;;;;;1.90;1.10;;;17.60;99.90;;;;;;5023717;28;20184;-78
2021/09/28 07:13:15;;;;;;;6.47;1.80;;;17.70;99.90;;;;;;5059274;28;20183;-80
2021/09/28 07:15:41;;;;;;;5.10;2.30;;;17.80;99.90;;;;;;5039418;28;20228;-79
2021/09/28 07:18:07;;;;;;;3.10;1.70;;;17.90;99.90;;;;;;5040958;28;20180;-80
2021/09/28 07:20:33;;;;;;;6.80;3.07;;;18.00;99.90;;;;;;5043793;28;20215;-80
2021/09/28 07:22:58;;;;;;;4.17;1.90;;;17.60;99.90;;;;;;5007577;28;20178;-79
2021/09/28 07:25:24;;;;;;;3.60;1.97;;;17.60;99.90;;;;;;5018827;28;20446;-80
2021/09/28 07:27:49;;;;;;;3.00;1.50;;;17.70;99.90;;;;;;5021336;28;20180;-79
2021/09/28 07:30:15;;;;;;;2.63;2.00;;;17.90;99.90;;;;;;5036745;28;20193;-79
2021/09/28 07:32:41;;;;;;;9.47;1.60;;;17.80;99.90;;;;;;5022562;28;20184;-79
2021/09/28 07:35:08;;;;;;;2.43;1.43;;;17.50;99.90;;;;;;5036893;28;20752;-79
2021/09/28 07:37:34;;;;;;;3.30;1.60;;;17.60;99.90;;;;;;5036985;28;20477;-80
2021/09/28 07:40:00;;;;;;;3.10;2.10;;;17.50;99.90;;;;;;5033439;28;20823;-80
2021/09/28 07:42:26;;;;;;;3.53;2.33;;;17.50;99.90;;;;;;5033074;28;20930;-79
2021/09/28 07:44:54;;;;;;;2.13;1.50;;;17.70;99.90;;;;;;5022382;28;20181;-79
2021/09/28 07:47:20;;;;;;;2.23;1.60;;;17.80;99.90;;;;;;5032807;28;20432;-79
2021/09/28 07:49:46;;;;;;;4.13;1.70;;;17.70;99.90;;;;;;5033922;28;20975;-81
2021/09/28 07:52:11;;;;;;;5.60;1.80;;;17.60;99.90;;;;;;5038820;28;20412;-79
2021/09/28 07:54:39;;;;;;;2.50;1.57;;;17.50;99.90;;;;;;5042404;28;20195;-80
2021/09/28 07:57:05;;;;;;;4.03;1.60;;;17.60;99.90;;;;;;5035484;28;20211;-82
2021/09/28 07:59:31;;;;;;;3.53;1.63;;;17.60;99.90;;;;;;5024585;28;20555;-80
2021/09/28 08:01:56;;;;;;;3.87;1.80;;;17.70;99.90;;;;;;5035909;28;20909;-81
2021/09/28 08:04:22;;;;;;;2.13;1.47;;;17.80;99.90;;;;;;5034321;28;20443;-81
2021/09/28 08:06:48;;;;;;;3.83;1.70;;;17.60;99.90;;;;;;5034749;28;20229;-80
2021/09/28 08:09:16;;;;;;;3.83;2.10;;;17.60;99.90;;;;;;5034661;28;20175;-80
2021/09/28 08:11:42;;;;;;;4.03;2.13;;;17.50;99.90;;;;;;5036100;28;20173;-81
2021/09/28 08:14:09;;;;;;;2.50;1.50;;;17.50;99.90;;;;;;5017099;28;20561;-79
2021/09/28 08:16:35;;;;;;;4.07;1.80;;;17.70;99.90;;;;;;5035063;28;20234;-79
2021/09/28 08:19:02;;;;;;;3.87;2.20;;;17.90;99.90;;;;;;5033570;28;20465;-80
2021/09/28 08:21:28;;;;;;;5.50;2.13;;;17.90;99.90;;;;;;5034587;28;20478;-81
2021/09/28 08:23:55;;;;;;;5.23;2.00;;;17.80;99.90;;;;;;5033207;28;20801;-79
2021/09/28 08:29:09;;;;;;;2.53;2.20;;;17.80;99.90;;;;;;5017960;28;20428;-80
2021/09/28 08:31:41;;;;;;;2.87;2.10;;;17.60;99.90;;;;;;5007969;28;20448;-81
2021/09/28 08:34:07;;;;;;;3.53;2.67;;;17.40;99.90;;;;;;5015722;28;20450;-79
2021/09/28 08:36:34;;;;;;;2.43;1.87;;;17.00;99.90;;;;;;5035774;28;20428;-80
2021/09/28 08:39:00;;;;;;;3.00;1.90;;;16.70;99.90;;;;;;5033210;28;20422;-81
2021/09/28 08:41:26;;;;;;;3.37;2.67;;;17.00;99.90;;;;;;5035377;28;20503;-81
2021/09/28 08:43:52;;;;;;;3.53;2.67;;;17.10;99.90;;;;;;5034253;28;20960;-81
2021/09/28 08:46:19;;;;;;;3.93;2.80;;;17.20;99.90;;;;;;5033128;28;20554;-81
2021/09/28 08:48:46;;;;;;;3.47;2.23;;;16.90;99.90;;;;;;5034138;28;20174;-80
2021/09/28 08:51:12;;;;;;;2.87;2.37;;;17.20;99.90;;;;;;5023922;28;20495;-80
2021/09/28 08:53:38;;;;;;;4.77;2.17;;;16.80;99.90;;;;;;5034694;28;20491;-81
2021/09/28 08:56:05;;;;;;;2.77;2.50;;;17.10;99.90;;;;;;5015673;28;20455;-80
2021/09/28 08:58:31;;;;;;;6.23;2.77;;;17.20;99.90;;;;;;5034267;28;20433;-80
2021/09/28 09:01:09;;;;;;;3.33;2.30;;;17.10;99.90;;;;;;5025586;28;21049;-81
2021/09/28 09:03:36;;;;;;;5.93;3.17;;;16.60;99.90;;;;;;5035022;28;20416;-81
2021/09/28 09:06:14;;;;;;;4.07;2.93;;;16.70;99.90;;;;;;5036497;28;20482;-81
2021/09/28 09:08:42;;;;;;;4.07;2.43;;;16.90;99.90;;;;;;5036142;28;20452;-82
2021/09/28 09:11:13;;;;;;;4.23;3.40;;;17.10;99.90;;;;;;5035415;28;20944;-82
2021/09/28 09:13:47;;;;;;;3.70;3.03;;;17.20;99.90;;;;;;5034960;28;20438;-81
2021/09/28 09:16:18;;;;;;;6.30;2.87;;;17.20;99.90;;;;;;5035116;28;20441;-81
2021/09/28 09:18:46;;;;;;;2.53;2.33;;;17.30;99.90;;;;;;5034484;28;20923;-81
2021/09/28 09:21:14;;;;;;;6.57;3.07;;;17.40;99.90;;;;;;5037669;28;20464;-81
2021/09/28 09:23:42;;;;;;;4.03;2.70;;;17.50;99.90;;;;;;5039212;28;20466;-81
2021/09/28 09:26:20;;;;;;;4.37;2.40;;;17.30;99.90;;;;;;5039710;28;20864;-81
2021/09/28 09:28:48;;;;;;;3.37;2.20;;;17.00;99.90;;;;;;5039646;28;20406;-82
2021/09/28 09:31:29;;;;;;;10.03;2.53;;;17.00;99.90;;;;;;5037626;28;20858;-81
2021/09/28 09:34:05;;;;;;;4.00;1.83;;;17.10;99.90;;;;;;5026829;28;20537;-83
2021/09/28 09:36:31;;;;;;;3.60;2.20;;;17.10;99.90;;;;;;5021411;28;20806;-82
2021/09/28 09:38:57;;;;;;;4.50;2.33;;;17.40;99.90;;;;;;5035020;28;20438;-81
2021/09/28 09:41:28;;;;;;;4.13;2.50;;;17.50;99.90;;;;;;5039836;28;20208;-82
2021/09/28 09:44:11;;;;;;;4.63;2.60;;;17.70;99.90;;;;;;5023937;28;20421;-82
2021/09/28 09:46:51;;;;;;;3.43;2.63;;;17.80;99.90;;;;;;5040154;28;20476;-81
2021/09/28 09:49:31;;;;;;;2.90;2.60;;;17.60;99.90;;;;;;5024319;28;20457;-81
2021/09/28 09:52:09;;;;;;;6.40;2.50;;;17.70;99.90;;;;;;5040442;28;20476;-82
2021/09/28 09:54:39;;;;;;;2.77;2.00;;;17.70;99.90;;;;;;5038447;28;20454;-82
2021/09/28 09:57:07;;;;;;;3.40;2.50;;;17.80;99.90;;;;;;5040432;28;20454;-81
2021/09/28 09:59:33;;;;;;;4.30;3.10;;;17.80;99.90;;;;;;5039263;28;20871;-82
2021/09/28 10:01:59;;;;;;;4.30;2.50;;;17.90;99.90;;;;;;5012679;28;20457;-81
2021/09/28 10:04:25;;;;;;;4.30;3.23;;;17.90;99.90;;;;;;5038909;28;20430;-81
2021/09/28 10:06:52;;;;;;;4.07;2.93;;;17.80;99.90;;;;;;5035256;28;20216;-81
2021/09/28 10:09:23;;;;;;;6.03;3.20;;;17.80;99.90;;;;;;5027608;28;20426;-82
2021/09/28 10:12:01;;;;;;;5.83;3.33;;;17.50;99.90;;;;;;5038700;28;20434;-82
2021/09/28 10:14:41;;;;;;;3.97;2.50;;;17.20;99.90;;;;;;5036339;28;20510;-82
2021/09/28 10:17:22;;;;;;;3.90;2.80;;;17.10;99.90;;;;;;5038403;28;20488;-82
2021/09/28 10:19:50;;;;;;;4.70;2.90;;;17.00;99.90;;;;;;5038834;28;20454;-82
2021/09/28 10:22:49;;;;;;;4.17;2.97;;;17.20;99.90;;;;;;5038069;28;20512;-82
2021/09/28 10:25:20;;;;;;;10.63;3.63;;;17.40;99.90;;;;;;5038405;28;20438;-81
2021/09/28 10:27:51;;;;;;;7.53;3.43;;;17.30;99.90;;;;;;5039097;28;20406;-81
2021/09/28 10:30:28;;;;;;;6.43;3.70;;;17.30;99.90;;;;;;5038614;28;20912;-81
2021/09/28 10:32:55;;;;;;;6.57;2.83;;;17.00;99.90;;;;;;5034050;28;20426;-81
2021/09/28 10:35:20;;;;;;;5.10;2.87;;;17.10;99.90;;;;;;5036102;28;20451;-81
2021/09/28 10:37:52;;;;;;;5.47;3.53;;;17.30;99.90;;;;;;5033079;28;20458;-80
2021/09/28 10:40:20;;;;;;;9.40;3.00;;;17.10;99.90;;;;;;5036921;28;20194;-81
2021/09/28 10:42:53;;;;;;;8.43;2.33;;;17.30;99.90;;;;;;5038547;28;20423;-81
2021/09/28 10:45:45;;;;;;;2.73;2.50;;;17.50;99.90;;;;;;5031577;28;20473;-81
2021/09/28 10:48:32;;;;;;;4.07;2.60;;;17.70;99.90;;;;;;5035979;28;20418;-81
2021/09/28 10:51:20;;;;;;;4.60;3.10;;;17.90;99.90;;;;;;5040187;28;20423;-80
2021/09/28 10:53:50;;;;;;;4.03;2.87;;;17.90;99.90;;;;;;5033091;28;20424;-81
2021/09/28 10:56:17;;;;;;;5.17;3.13;;;18.00;99.90;;;;;;5027397;28;20448;-81
2021/09/28 10:59:02;;;;;;;5.33;3.10;;;18.10;99.90;;;;;;5028269;28;20508;-81
2021/09/28 11:01:30;;;;;;;4.53;2.90;;;17.90;99.90;;;;;;5037866;28;20513;-81
2021/09/28 11:04:21;;;;;;;5.10;2.83;;;18.00;99.90;;;;;;5034452;28;20449;-80
2021/09/28 11:06:52;;;;;;;4.93;2.70;;;18.20;99.90;;;;;;5020201;28;20472;-82
2021/09/28 11:09:21;;;;;;;5.10;3.37;;;18.20;99.90;;;;;;5037411;28;20427;-81
2021/09/28 11:11:56;;;;;;;3.70;2.70;;;18.00;99.90;;;;;;5034609;28;20992;-81
2021/09/28 11:14:23;;;;;;;3.40;2.57;;;18.00;99.90;;;;;;5033703;28;20439;-81
2021/09/28 11:16:56;;;;;;;6.50;2.70;;;18.10;99.90;;;;;;5034836;28;20493;-81
2021/09/28 11:19:31;;;;;;;4.07;2.33;;;18.20;99.90;;;;;;5032005;28;20424;-81
2021/09/28 11:21:56;;;;;;;4.90;3.10;;;18.40;99.90;;;;;;5027283;28;20440;-81
2021/09/28 11:24:27;;;;;;;5.83;2.70;;;18.50;99.90;;;;;;5034567;28;20448;-81
2021/09/28 11:27:09;;;;;;;6.43;2.77;;;18.40;99.90;;;;;;5036454;28;20740;-80
2021/09/28 11:29:35;;;;;;;9.03;2.97;;;17.90;99.90;;;;;;5027015;28;20412;-81
2021/09/28 11:32:04;;;;;;;3.77;2.60;;;18.10;99.90;;;;;;5025400;28;20468;-81
2021/09/28 11:34:33;;;;;;;4.37;2.47;;;18.30;99.90;;;;;;5026331;28;20169;-80
2021/09/28 11:37:01;;;;;;;3.53;2.13;;;18.40;99.90;;;;;;5033418;28;20463;-81
2021/09/28 11:39:32;;;;;;;4.80;2.60;;;18.50;99.90;;;;;;5034924;28;20483;-82
2021/09/28 11:41:58;;;;;;;3.20;2.50;;;18.70;99.90;;;;;;5024230;28;20425;-81
2021/09/28 11:44:32;;;;;;;7.70;2.50;;;18.70;99.90;;;;;;5035827;28;20820;-81
2021/09/28 11:46:58;;;;;;;4.43;3.77;;;18.60;99.90;;;;;;5036075;28;20268;-81
2021/09/28 11:49:24;;;;;;;5.57;3.93;;;18.70;99.90;;;;;;5036294;28;20443;-81
2021/09/28 11:51:50;;;;;;;7.93;3.80;;;18.70;99.90;;;;;;5037393;28;20412;-81
2021/09/28 11:54:16;;;;;;;6.27;3.93;;;18.70;99.90;;;;;;5035022;28;20649;-81
2021/09/28 11:56:46;;;;;;;8.57;4.40;;;18.60;99.90;;;;;;5044083;28;20458;-82
2021/09/28 11:59:17;;;;;;;14.43;6.57;;;18.60;99.90;;;;;;5042516;28;20200;-82
2021/09/28 12:01:45;;;;;;;4.30;3.00;;;18.70;99.90;;;;;;5046235;28;20727;-81
2021/09/28 12:09:47;;;;;;;5.60;2.97;;;18.80;99.90;;;;;;5036872;28;20411;-80
2021/09/28 12:12:22;;;;;;;4.77;2.43;;;18.90;99.90;;;;;;5034519;28;20775;-80
2021/09/28 12:14:55;;;;;;;7.40;2.33;;;18.90;99.90;;;;;;5024717;28;20420;-81
2021/09/28 12:17:23;;;;;;;2.73;1.93;;;18.70;99.90;;;;;;5025726;28;20424;-80
2021/09/28 12:19:53;;;;;;;2.90;2.00;;;18.30;99.90;;;;;;5019073;28;20456;-80
2021/09/28 12:22:42;;;;;;;4.10;2.50;;;18.10;99.90;;;;;;5028240;28;20421;-79
2021/09/28 12:25:12;;;;;;;3.60;2.57;;;18.10;99.90;;;;;;5034009;28;20404;-80
2021/09/28 12:28:00;;;;;;;4.60;3.20;;;18.00;99.90;;;;;;5037796;28;20789;-81
2021/09/28 12:30:30;;;;;;;4.37;2.83;;;18.20;99.90;;;;;;5043044;28;20430;-81
2021/09/28 12:32:57;;;;;;;9.00;2.47;;;18.50;99.90;;;;;;5039533;28;20400;-81
2021/09/28 12:35:27;;;;;;;7.40;2.77;;;18.70;99.90;;;;;;5040923;28;20966;-81
2021/09/28 12:38:01;;;;;;;4.33;2.03;;;18.60;99.90;;;;;;5035246;28;20818;-81
2021/09/28 12:40:38;;;;;;;3.97;2.17;;;18.40;99.90;;;;;;5038232;28;20455;-81
2021/09/28 12:43:11;;;;;;;7.43;3.00;;;18.70;99.90;;;;;;5037095;28;20419;-81
2021/09/28 12:45:51;;;;;;;3.13;2.50;;;18.80;99.90;;;;;;5039014;28;20484;-80
2021/09/28 12:48:31;;;;;;;2.93;2.17;;;18.80;99.90;;;;;;5037714;28;20438;-81
2021/09/28 12:51:06;;;;;;;7.50;2.47;;;18.90;99.90;;;;;;5038211;28;20413;-82
2021/09/28 12:53:33;;;;;;;6.23;2.90;;;18.70;99.90;;;;;;5006330;28;20463;-80
2021/09/28 12:55:58;;;;;;;2.80;2.40;;;18.70;99.90;;;;;;5031679;28;20529;-80